Time;durP1;ratioP1;P1;durP2;ratioP2;P2;SDS_P1;SDS_P2;PMS_P1;PMS_P2;Temp;Humidity;BMP_temperature;BMP_pressure;BME280_temperature;BME280_humidity;BME280_pressure;Samples;Min_cycle;Max_cycle;Signal;HPM_P1;HPM_P2
2021/06/22 00:02:21;;;;;;;2.40;1.05;;;24.90;50.70;;;;;;6291058;28;20411;-67
2021/06/22 00:05:23;;;;;;;2.85;1.15;;;24.90;50.70;;;;;;6279055;28;20036;-67
2021/06/22 00:08:23;;;;;;;1.30;0.70;;;24.90;50.80;;;;;;6292141;28;20033;-67
2021/06/22 00:11:24;;;;;;;1.65;0.80;;;24.90;50.70;;;;;;6282942;28;20036;-67
2021/06/22 00:14:24;;;;;;;2.03;0.98;;;24.90;50.70;;;;;;6291555;28;20076;-68
2021/06/22 00:17:25;;;;;;;1.40;0.85;;;24.90;50.80;;;;;;6290786;28;20107;-67
2021/06/22 00:20:26;;;;;;;2.13;1.08;;;24.90;50.80;;;;;;6291398;28;20045;-67
2021/06/22 00:23:27;;;;;;;1.23;0.70;;;24.80;50.80;;;;;;6291810;28;20144;-67
2021/06/22 00:26:27;;;;;;;1.65;0.80;;;24.90;50.90;;;;;;6290905;28;20028;-68
2021/06/22 00:29:28;;;;;;;1.45;0.80;;;24.80;50.80;;;;;;6290853;28;20032;-67
2021/06/22 00:32:28;;;;;;;2.65;0.80;;;24.80;50.80;;;;;;6290934;28;20364;-67
2021/06/22 00:35:28;;;;;;;1.63;1.00;;;24.80;50.80;;;;;;6291404;28;20127;-67
2021/06/22 00:38:29;;;;;;;1.30;0.70;;;24.80;50.80;;;;;;6291090;28;20503;-68
2021/06/22 00:41:30;;;;;;;1.83;0.90;;;24.80;50.90;;;;;;6290972;28;20029;-67
2021/06/22 00:44:30;;;;;;;1.33;0.65;;;24.80;50.90;;;;;;6290904;28;20116;-67
2021/06/22 00:47:31;;;;;;;0.85;0.63;;;24.80;50.90;;;;;;6290486;28;20607;-67
2021/06/22 00:50:32;;;;;;;1.77;0.80;;;24.80;50.90;;;;;;6290408;28;20066;-67
2021/06/22 00:53:35;;;;;;;1.05;0.70;;;24.80;50.90;;;;;;6268219;28;20401;-68
2021/06/22 00:56:36;;;;;;;1.58;0.90;;;24.80;50.90;;;;;;6263648;28;20035;-67
2021/06/22 00:59:36;;;;;;;1.38;0.80;;;24.90;51.00;;;;;;6290840;28;20133;-67
2021/06/22 01:02:37;;;;;;;0.95;0.70;;;24.90;51.10;;;;;;6290311;28;20023;-66
2021/06/22 01:05:37;;;;;;;0.98;0.70;;;24.90;51.10;;;;;;6268598;28;20032;-67
2021/06/22 01:08:39;;;;;;;1.48;0.90;;;24.80;51.00;;;;;;6290336;28;20017;-68
2021/06/22 01:11:40;;;;;;;0.90;0.70;;;24.80;51.00;;;;;;6290030;28;20028;-67
2021/06/22 01:14:42;;;;;;;0.73;0.60;;;24.80;51.10;;;;;;6289806;28;20123;-67
2021/06/22 01:17:43;;;;;;;2.13;1.02;;;24.80;51.10;;;;;;6289604;28;20189;-67
2021/06/22 01:20:44;;;;;;;1.05;0.70;;;24.80;51.10;;;;;;6290110;28;20024;-67
2021/06/22 01:23:44;;;;;;;3.35;0.80;;;24.80;51.10;;;;;;6288761;28;20081;-67
2021/06/22 01:26:50;;;;;;;1.63;0.90;;;24.80;51.20;;;;;;6290513;28;20055;-67
2021/06/22 01:29:52;;;;;;;0.93;0.70;;;24.80;51.20;;;;;;6290558;28;20104;-67
2021/06/22 01:32:53;;;;;;;1.17;0.80;;;24.80;51.20;;;;;;6290138;28;20512;-67
2021/06/22 01:35:53;;;;;;;1.20;0.80;;;24.80;51.20;;;;;;6265942;28;20041;-67
2021/06/22 01:38:54;;;;;;;1.25;0.60;;;24.80;51.20;;;;;;6285961;28;20094;-67
2021/06/22 01:41:55;;;;;;;1.10;0.60;;;24.80;50.70;;;;;;6289781;28;20029;-66
2021/06/22 01:44:56;;;;;;;0.95;0.60;;;24.90;49.40;;;;;;6290378;28;20029;-67
2021/06/22 01:47:57;;;;;;;2.33;0.98;;;24.90;48.50;;;;;;6289820;28;20479;-67
2021/06/22 01:50:58;;;;;;;3.47;0.63;;;25.00;48.10;;;;;;6288585;28;20085;-68
2021/06/22 01:54:00;;;;;;;1.00;0.70;;;25.00;47.90;;;;;;6260207;28;20033;-67
2021/06/22 01:57:00;;;;;;;1.92;0.82;;;25.00;47.50;;;;;;6245734;28;20072;-67
2021/06/22 02:00:01;;;;;;;0.77;0.68;;;25.10;47.30;;;;;;6290288;28;20489;-67
2021/06/22 02:03:01;;;;;;;1.17;0.65;;;25.10;47.20;;;;;;6279129;28;20567;-67
2021/06/22 02:06:02;;;;;;;1.05;0.60;;;25.10;47.10;;;;;;6279021;28;20016;-67
2021/06/22 02:09:03;;;;;;;1.83;0.65;;;25.10;47.00;;;;;;6290225;28;20037;-67
2021/06/22 02:12:05;;;;;;;1.17;0.70;;;25.10;46.90;;;;;;6289285;28;20032;-67
2021/06/22 02:15:10;;;;;;;1.30;0.80;;;25.20;46.90;;;;;;6289458;28;20040;-67
2021/06/22 02:18:10;;;;;;;0.90;0.65;;;25.20;46.80;;;;;;6289479;28;20427;-67
2021/06/22 02:21:12;;;;;;;1.25;0.70;;;25.20;46.60;;;;;;6289446;28;20033;-67
2021/06/22 02:24:12;;;;;;;1.08;0.63;;;25.20;46.60;;;;;;6289443;28;20032;-68
2021/06/22 02:27:30;;;;;;;0.60;0.50;;;25.20;46.50;;;;;;6293426;28;20071;-67
2021/06/22 02:30:31;;;;;;;1.40;0.82;;;25.30;46.40;;;;;;6293892;28;20384;-67
2021/06/22 02:33:32;;;;;;;0.80;0.60;;;25.30;46.40;;;;;;6292984;28;20430;-68
2021/06/22 02:36:32;;;;;;;0.70;0.60;;;25.30;46.40;;;;;;6294197;28;20047;-67
2021/06/22 02:39:33;;;;;;;1.10;0.60;;;25.30;46.40;;;;;;6293428;28;20056;-68
2021/06/22 02:42:34;;;;;;;1.15;0.70;;;25.20;46.30;;;;;;6293909;28;20033;-68
2021/06/22 02:45:35;;;;;;;1.67;0.85;;;25.30;46.20;;;;;;6293545;28;20482;-67
2021/06/22 02:48:36;;;;;;;0.85;0.65;;;25.30;46.10;;;;;;6293782;28;20032;-67
2021/06/22 02:51:36;;;;;;;1.10;0.60;;;25.30;46.10;;;;;;6293413;28;20036;-67
2021/06/22 02:54:38;;;;;;;0.80;0.60;;;25.30;46.00;;;;;;6280829;28;20074;-67
2021/06/22 02:57:38;;;;;;;1.70;0.82;;;25.30;45.90;;;;;;6293802;28;20064;-67
2021/06/22 03:00:39;;;;;;;0.93;0.68;;;25.30;45.90;;;;;;6293534;28;20028;-67
2021/06/22 03:03:39;;;;;;;1.17;0.82;;;25.40;45.90;;;;;;6286673;28;20025;-67
2021/06/22 03:06:40;;;;;;;1.30;0.70;;;25.30;45.80;;;;;;6268496;28;20033;-67
2021/06/22 03:09:42;;;;;;;1.17;0.73;;;25.30;45.80;;;;;;6279194;28;20027;-67
2021/06/22 03:12:42;;;;;;;1.48;0.50;;;25.30;45.80;;;;;;6286569;28;20147;-67
2021/06/22 03:15:43;;;;;;;1.08;0.50;;;25.30;45.70;;;;;;6286263;28;20053;-67
2021/06/22 03:18:43;;;;;;;0.70;0.60;;;25.40;45.80;;;;;;6293083;28;20028;-67
2021/06/22 03:21:45;;;;;;;1.50;0.70;;;25.30;45.60;;;;;;6292982;28;20524;-67
2021/06/22 03:24:45;;;;;;;0.65;0.60;;;25.30;45.60;;;;;;6292656;28;20582;-67
2021/06/22 03:27:46;;;;;;;0.70;0.63;;;25.40;45.60;;;;;;6293481;28;20020;-67
2021/06/22 03:30:47;;;;;;;1.20;0.80;;;25.40;45.50;;;;;;6292461;28;20105;-67
2021/06/22 03:33:48;;;;;;;0.93;0.70;;;25.40;45.50;;;;;;6292649;28;20035;-67
2021/06/22 03:36:49;;;;;;;1.10;0.85;;;25.40;45.60;;;;;;6291794;28;20037;-67
2021/06/22 03:39:49;;;;;;;1.20;0.90;;;25.40;45.50;;;;;;6291259;28;20066;-68
2021/06/22 03:42:50;;;;;;;1.58;0.90;;;25.40;45.40;;;;;;6292336;28;20094;-68
2021/06/22 03:45:52;;;;;;;1.13;0.82;;;25.40;45.30;;;;;;6292143;28;20028;-68
2021/06/22 03:48:52;;;;;;;0.98;0.75;;;25.40;45.30;;;;;;6292610;28;20070;-67
2021/06/22 03:51:54;;;;;;;1.02;0.90;;;25.40;45.30;;;;;;6291607;28;20044;-67
2021/06/22 03:54:54;;;;;;;0.85;0.80;;;25.40;45.30;;;;;;6258502;28;20545;-68
2021/06/22 03:58:01;;;;;;;1.38;0.90;;;25.40;45.30;;;;;;6291982;28;20036;-67
2021/06/22 04:01:03;;;;;;;1.30;0.98;;;25.40;45.30;;;;;;6291938;28;20024;-67
2021/06/22 04:04:03;;;;;;;0.70;0.70;;;25.40;45.20;;;;;;6281318;28;20040;-68
2021/06/22 04:07:04;;;;;;;1.35;1.08;;;25.40;45.20;;;;;;6267258;28;20021;-68
2021/06/22 04:10:06;;;;;;;1.67;1.27;;;25.40;45.20;;;;;;6269316;28;20013;-68
2021/06/22 04:13:07;;;;;;;1.00;0.90;;;25.40;45.10;;;;;;6271476;28;20462;-67
2021/06/22 04:16:08;;;;;;;1.05;0.95;;;25.50;45.10;;;;;;6277066;28;20380;-67
2021/06/22 04:19:08;;;;;;;1.35;0.90;;;25.40;45.00;;;;;;6291172;28;20059;-67
2021/06/22 04:22:09;;;;;;;1.23;1.00;;;25.40;45.10;;;;;;6291386;28;20028;-67
2021/06/22 04:25:10;;;;;;;1.20;1.10;;;25.40;45.00;;;;;;6291592;28;20047;-67
2021/06/22 04:28:11;;;;;;;1.00;0.95;;;25.50;45.00;;;;;;6291809;28;20035;-67
2021/06/22 04:31:12;;;;;;;1.17;1.00;;;25.40;44.90;;;;;;6290832;28;20051;-67
2021/06/22 04:34:12;;;;;;;1.20;1.10;;;25.50;44.90;;;;;;6291223;28;20127;-67
2021/06/22 04:37:13;;;;;;;1.50;1.20;;;25.50;44.90;;;;;;6291378;28;20090;-67
2021/06/22 04:40:14;;;;;;;1.83;1.25;;;25.40;44.90;;;;;;6291033;28;20056;-68
2021/06/22 04:43:14;;;;;;;1.77;1.25;;;25.40;44.90;;;;;;6290425;28;20541;-68
2021/06/22 04:46:15;;;;;;;1.15;1.00;;;25.40;45.60;;;;;;6290260;28;20163;-67
2021/06/22 04:49:15;;;;;;;1.30;1.17;;;25.30;46.20;;;;;;6290710;28;20550;-68
2021/06/22 04:52:16;;;;;;;1.25;1.05;;;25.20;46.40;;;;;;6288654;28;20045;-67
2021/06/22 04:55:20;;;;;;;1.35;1.25;;;25.20;46.70;;;;;;6241323;28;20036;-66
2021/06/22 04:58:21;;;;;;;1.65;1.20;;;25.20;47.00;;;;;;6285973;28;20031;-67
2021/06/22 05:01:23;;;;;;;1.40;1.17;;;25.10;47.10;;;;;;6279355;28;20022;-67
2021/06/22 05:04:23;;;;;;;1.48;1.02;;;25.10;47.30;;;;;;6253854;28;20078;-67
2021/06/22 05:07:24;;;;;;;2.13;1.20;;;25.10;47.40;;;;;;6278037;28;20053;-67
2021/06/22 05:10:24;;;;;;;1.08;0.98;;;25.10;47.60;;;;;;6290569;28;20032;-67
2021/06/22 05:13:25;;;;;;;1.20;1.05;;;25.10;47.70;;;;;;6289414;28;20039;-67
2021/06/22 05:16:28;;;;;;;1.45;1.25;;;25.10;47.80;;;;;;6290073;28;20040;-67
2021/06/22 05:19:28;;;;;;;1.70;1.10;;;25.10;47.90;;;;;;6290480;28;20104;-67
2021/06/22 05:22:29;;;;;;;1.10;1.00;;;25.10;48.00;;;;;;6284663;28;20039;-68
2021/06/22 05:25:29;;;;;;;1.73;1.42;;;25.10;48.00;;;;;;6265646;28;20028;-67
2021/06/22 05:28:30;;;;;;;1.50;1.20;;;25.10;48.10;;;;;;6284094;28;20117;-67
2021/06/22 05:31:31;;;;;;;1.60;1.25;;;25.10;48.20;;;;;;6290321;28;20447;-67
2021/06/22 05:34:31;;;;;;;1.30;1.20;;;25.10;48.20;;;;;;6290499;28;20028;-67
2021/06/22 05:37:32;;;;;;;1.25;1.15;;;25.10;48.30;;;;;;6289890;28;20074;-67
2021/06/22 05:40:33;;;;;;;1.25;1.15;;;25.10;48.30;;;;;;6289978;28;20515;-67
2021/06/22 05:43:34;;;;;;;1.90;1.30;;;25.00;48.40;;;;;;6287570;28;20047;-67
2021/06/22 05:46:34;;;;;;;1.60;1.42;;;25.10;48.50;;;;;;6289859;28;20047;-67
2021/06/22 05:49:35;;;;;;;1.58;1.08;;;25.00;48.50;;;;;;6289378;28;20090;-68
2021/06/22 05:52:36;;;;;;;1.52;1.23;;;25.00;48.50;;;;;;6283251;28;20774;-68
2021/06/22 05:55:36;;;;;;;1.83;1.35;;;25.00;48.60;;;;;;6240540;28;20053;-68
2021/06/22 05:58:37;;;;;;;1.45;1.30;;;25.00;48.60;;;;;;6270181;28;20029;-68
2021/06/22 06:01:38;;;;;;;1.63;1.13;;;25.00;48.70;;;;;;6263590;28;20067;-68
2021/06/22 06:04:39;;;;;;;2.28;1.50;;;25.00;48.80;;;;;;6279113;28;20036;-68
2021/06/22 06:07:40;;;;;;;2.40;1.45;;;25.00;48.80;;;;;;6271357;28;20032;-68
2021/06/22 06:10:40;;;;;;;5.05;2.50;;;25.00;48.90;;;;;;6257466;28;20122;-68
2021/06/22 06:13:41;;;;;;;7.40;2.80;;;24.90;50.90;;;;;;6279524;28;20044;-69
2021/06/22 06:16:42;;;;;;;5.85;2.70;;;24.90;51.20;;;;;;6271405;28;20036;-68
2021/06/22 06:19:43;;;;;;;7.95;3.47;;;24.90;51.30;;;;;;6287317;28;20032;-68
2021/06/22 06:22:46;;;;;;;5.93;2.80;;;24.90;51.80;;;;;;6293884;28;20044;-68
2021/06/22 06:25:47;;;;;;;5.43;2.60;;;24.90;51.30;;;;;;6284573;28;20416;-67
2021/06/22 06:28:51;;;;;;;3.90;2.10;;;24.90;51.00;;;;;;6278179;28;20020;-68
2021/06/22 06:31:52;;;;;;;3.28;2.00;;;24.90;50.70;;;;;;6293463;28;20082;-67
2021/06/22 06:34:52;;;;;;;2.80;1.98;;;24.90;50.40;;;;;;6293607;28;20033;-68
2021/06/22 06:37:53;;;;;;;3.83;1.70;;;24.90;50.20;;;;;;6293628;28;20170;-68
2021/06/22 06:40:53;;;;;;;2.70;1.70;;;24.90;50.10;;;;;;6292655;28;20066;-68
2021/06/22 06:43:54;;;;;;;2.50;1.73;;;24.90;50.10;;;;;;6282082;28;20387;-68
2021/06/22 06:46:54;;;;;;;3.67;2.10;;;24.90;50.00;;;;;;6292637;28;20112;-68
2021/06/22 06:49:55;;;;;;;2.17;1.75;;;25.00;50.00;;;;;;6292878;28;20036;-68
2021/06/22 06:52:55;;;;;;;1.92;1.50;;;24.90;49.90;;;;;;6280430;28;20056;-68
2021/06/22 06:55:56;;;;;;;2.25;1.45;;;25.00;50.00;;;;;;6291679;28;20446;-67
2021/06/22 06:58:56;;;;;;;2.53;1.80;;;25.00;50.00;;;;;;6292844;28;20487;-67
2021/06/22 07:01:57;;;;;;;2.95;1.88;;;25.00;50.00;;;;;;6292801;28;20487;-68
2021/06/22 07:04:58;;;;;;;2.35;1.70;;;24.90;50.00;;;;;;6285832;28;20036;-68
2021/06/22 07:08:00;;;;;;;2.45;1.58;;;24.90;50.00;;;;;;6292727;28;20372;-68
2021/06/22 07:11:00;;;;;;;2.55;1.73;;;24.90;50.00;;;;;;6290856;28;20108;-68
2021/06/22 07:14:01;;;;;;;2.70;1.80;;;24.90;50.70;;;;;;6278513;28;20046;-68
2021/06/22 07:17:02;;;;;;;2.70;1.75;;;24.80;51.20;;;;;;6288724;28;20048;-68
2021/06/22 07:20:07;;;;;;;4.10;1.70;;;24.80;51.50;;;;;;6271744;28;20486;-68
2021/06/22 07:23:08;;;;;;;2.83;1.52;;;24.70;51.30;;;;;;6288822;28;20021;-68
2021/06/22 07:26:09;;;;;;;9.27;1.73;;;24.70;51.70;;;;;;6292501;28;20027;-68
2021/06/22 07:29:09;;;;;;;3.50;1.70;;;24.70;51.90;;;;;;6291630;28;20394;-67
2021/06/22 07:32:10;;;;;;;4.05;1.90;;;24.70;52.10;;;;;;6283642;28;20017;-67
2021/06/22 07:35:12;;;;;;;3.42;1.80;;;24.70;52.00;;;;;;6275281;28;20029;-68
2021/06/22 07:38:12;;;;;;;2.92;1.75;;;24.60;51.80;;;;;;6292377;28;20077;-68
2021/06/22 07:41:13;;;;;;;4.85;2.05;;;24.60;51.90;;;;;;6262038;28;20479;-68
2021/06/22 07:44:13;;;;;;;6.13;2.00;;;24.60;52.00;;;;;;6267750;28;20121;-68
2021/06/22 07:47:14;;;;;;;2.55;1.73;;;24.60;52.00;;;;;;6290542;28;20059;-68
2021/06/22 07:50:15;;;;;;;3.47;1.77;;;24.60;52.30;;;;;;6288895;28;20029;-68
2021/06/22 07:53:15;;;;;;;3.55;1.98;;;24.60;52.30;;;;;;6273878;28;20026;-67
2021/06/22 07:56:16;;;;;;;3.45;1.80;;;24.60;52.20;;;;;;6269837;28;20473;-68
2021/06/22 07:59:16;;;;;;;3.25;1.85;;;24.60;52.20;;;;;;6291277;28;20051;-68
2021/06/22 08:02:17;;;;;;;5.95;1.80;;;24.60;52.10;;;;;;6289867;28;20115;-68
2021/06/22 08:05:17;;;;;;;3.13;1.50;;;24.60;52.40;;;;;;6271779;28;20021;-67
2021/06/22 08:08:20;;;;;;;4.68;1.40;;;24.60;52.10;;;;;;6289294;28;20410;-67
2021/06/22 08:11:21;;;;;;;3.05;1.90;;;24.60;52.20;;;;;;6281029;28;20021;-68
2021/06/22 08:14:21;;;;;;;2.85;1.60;;;24.60;52.30;;;;;;6291542;28;20064;-67
2021/06/22 08:17:21;;;;;;;6.18;1.88;;;24.60;52.50;;;;;;6291306;28;20028;-67
2021/06/22 08:20:22;;;;;;;4.30;1.88;;;24.60;52.50;;;;;;6291209;28;20028;-67
2021/06/22 08:23:23;;;;;;;2.80;1.63;;;24.50;52.50;;;;;;6289275;28;20032;-67
2021/06/22 08:26:23;;;;;;;4.03;1.70;;;24.50;52.50;;;;;;6279580;28;20043;-68
2021/06/22 08:29:24;;;;;;;6.07;2.10;;;24.50;52.70;;;;;;6269210;28;20035;-67
2021/06/22 08:32:24;;;;;;;6.15;1.90;;;24.60;52.80;;;;;;6283960;28;20420;-68
2021/06/22 08:35:25;;;;;;;3.50;1.90;;;24.50;52.50;;;;;;6290381;28;20166;-68
2021/06/22 08:38:26;;;;;;;5.75;2.25;;;24.50;53.50;;;;;;6289681;28;20399;-68
2021/06/22 08:41:27;;;;;;;8.57;1.70;;;24.50;53.00;;;;;;6290772;28;20044;-68
2021/06/22 08:44:29;;;;;;;6.05;2.25;;;24.50;52.60;;;;;;6289957;28;20033;-68
2021/06/22 08:47:30;;;;;;;2.58;1.50;;;24.60;53.10;;;;;;6290528;28;20024;-68
2021/06/22 08:50:31;;;;;;;2.80;1.60;;;24.50;53.70;;;;;;6289823;28;20033;-67
2021/06/22 08:53:31;;;;;;;2.63;1.67;;;24.50;53.00;;;;;;6256726;28;20036;-68
2021/06/22 08:56:32;;;;;;;10.30;2.00;;;24.50;53.20;;;;;;6272774;28;20074;-68
2021/06/22 08:59:32;;;;;;;3.67;1.85;;;24.50;53.50;;;;;;6289452;28;20031;-67
2021/06/22 09:02:34;;;;;;;4.10;1.92;;;24.50;53.20;;;;;;6288258;28;20025;-67
2021/06/22 09:05:34;;;;;;;5.80;1.77;;;24.50;53.40;;;;;;6265653;28;20136;-68
2021/06/22 09:08:35;;;;;;;4.18;1.75;;;24.50;53.30;;;;;;6274348;28;20016;-68
2021/06/22 09:11:36;;;;;;;5.00;1.73;;;24.60;53.40;;;;;;6289327;28;20546;-68
2021/06/22 09:14:41;;;;;;;3.13;1.60;;;24.60;53.30;;;;;;6289759;28;20093;-68
2021/06/22 09:17:42;;;;;;;2.45;1.50;;;24.60;53.00;;;;;;6290347;28;20139;-68
2021/06/22 09:20:43;;;;;;;2.97;1.73;;;24.60;52.70;;;;;;6289603;28;20070;-68
2021/06/22 09:23:45;;;;;;;2.20;1.27;;;24.60;52.70;;;;;;6289763;28;20032;-68
2021/06/22 09:26:48;;;;;;;3.60;1.60;;;24.70;52.70;;;;;;6288136;28;20036;-68
2021/06/22 09:29:49;;;;;;;3.75;1.40;;;24.70;52.50;;;;;;6290070;28;20032;-68
2021/06/22 09:32:49;;;;;;;2.10;1.40;;;24.70;52.30;;;;;;6290140;28;20391;-68
2021/06/22 09:36:02;;;;;;;1.92;1.35;;;24.80;52.50;;;;;;6289068;28;20033;-68
2021/06/22 09:39:06;;;;;;;3.90;1.30;;;24.80;52.30;;;;;;6289894;28;20032;-68
2021/06/22 09:42:12;;;;;;;2.80;1.50;;;24.80;52.40;;;;;;6288657;28;20657;-68
2021/06/22 09:45:20;;;;;;;2.13;1.30;;;24.80;52.50;;;;;;6286863;28;20286;-68
2021/06/22 09:48:26;;;;;;;3.03;1.10;;;24.80;52.50;;;;;;6289558;28;20017;-68
2021/06/22 09:51:35;;;;;;;3.05;1.48;;;24.80;52.50;;;;;;6289291;28;20032;-68
2021/06/22 09:54:42;;;;;;;2.10;1.10;;;24.70;52.50;;;;;;6273854;28;20032;-68
2021/06/22 09:57:45;;;;;;;1.75;1.20;;;24.80;52.50;;;;;;6289221;28;20040;-67
2021/06/22 10:00:45;;;;;;;2.45;1.40;;;24.80;52.50;;;;;;6274790;28;20028;-68
2021/06/22 10:03:46;;;;;;;1.58;1.30;;;24.80;52.50;;;;;;6270145;28;20431;-68
2021/06/22 10:06:52;;;;;;;1.48;1.20;;;24.80;52.50;;;;;;6289714;28;20041;-67
2021/06/22 10:09:58;;;;;;;2.10;1.38;;;24.80;52.40;;;;;;6288158;28;20048;-67
2021/06/22 10:12:59;;;;;;;1.98;1.17;;;24.80;52.40;;;;;;6289911;28;20025;-67
2021/06/22 10:16:19;;;;;;;1.30;1.10;;;24.80;52.30;;;;;;6288562;28;20047;-68
2021/06/22 10:19:22;;;;;;;4.07;1.40;;;24.80;52.40;;;;;;6289140;28;20502;-68
2021/06/22 10:22:26;;;;;;;3.03;1.30;;;24.80;52.30;;;;;;6288680;28;20028;-68
2021/06/22 10:25:27;;;;;;;2.30;1.60;;;24.80;52.40;;;;;;6288586;28;20021;-68
2021/06/22 10:28:28;;;;;;;1.73;1.42;;;24.80;52.30;;;;;;6288727;28;20032;-67
2021/06/22 10:31:32;;;;;;;2.05;1.40;;;24.80;52.30;;;;;;6288897;28;20068;-68
2021/06/22 10:34:33;;;;;;;2.22;1.70;;;24.80;52.30;;;;;;6280710;28;20482;-68
2021/06/22 10:37:42;;;;;;;2.13;1.50;;;24.80;52.30;;;;;;6289674;28;20364;-67
2021/06/22 10:40:43;;;;;;;3.22;1.20;;;24.70;52.20;;;;;;6288196;28;20104;-67
2021/06/22 10:43:45;;;;;;;2.60;1.52;;;24.80;52.30;;;;;;6288498;28;20043;-68
2021/06/22 10:46:46;;;;;;;2.05;1.38;;;24.80;52.20;;;;;;6290565;28;20032;-68
2021/06/22 10:50:06;;;;;;;1.80;1.40;;;24.80;52.20;;;;;;6293291;28;20028;-68
2021/06/22 10:53:08;;;;;;;2.63;1.50;;;24.80;52.20;;;;;;6277942;28;20017;-68
2021/06/22 10:56:17;;;;;;;1.83;1.50;;;24.70;52.10;;;;;;6288009;28;20040;-67
2021/06/22 10:59:21;;;;;;;2.17;1.50;;;24.70;52.10;;;;;;6276144;28;20234;-67
2021/06/22 11:02:21;;;;;;;2.08;1.50;;;24.80;52.20;;;;;;6270806;28;20080;-68
2021/06/22 11:05:22;;;;;;;2.47;1.50;;;24.80;52.20;;;;;;6268041;28;20098;-67
2021/06/22 11:08:25;;;;;;;4.53;1.27;;;24.80;52.10;;;;;;6267986;28;20029;-68
2021/06/22 11:11:26;;;;;;;1.70;1.30;;;24.80;52.10;;;;;;6288558;28;20032;-68
2021/06/22 11:14:26;;;;;;;1.63;1.40;;;24.80;52.10;;;;;;6292149;28;20144;-68
2021/06/22 11:17:42;;;;;;;1.73;1.20;;;24.80;52.10;;;;;;6292711;28;20502;-68
2021/06/22 11:21:05;;;;;;;1.80;1.38;;;24.80;52.10;;;;;;6291830;28;20032;-67
2021/06/22 11:24:11;;;;;;;2.42;1.35;;;24.80;52.10;;;;;;6242745;28;20053;-67
2021/06/22 11:27:13;;;;;;;1.90;1.40;;;24.80;52.10;;;;;;6280396;28;20028;-69
2021/06/22 11:30:14;;;;;;;2.20;1.40;;;24.80;52.10;;;;;;6251957;28;20047;-68
2021/06/22 11:33:39;;;;;;;3.03;1.80;;;24.80;52.20;;;;;;6259383;28;20021;-68
2021/06/22 11:36:51;;;;;;;1.40;1.20;;;24.80;52.10;;;;;;6280521;28;20456;-67
2021/06/22 11:40:11;;;;;;;1.40;1.20;;;24.80;52.10;;;;;;6267867;28;20073;-68
2021/06/22 11:43:12;;;;;;;1.55;1.30;;;24.80;52.10;;;;;;6253693;28;20539;-68
2021/06/22 11:46:31;;;;;;;1.52;1.38;;;24.80;52.20;;;;;;6270620;28;20025;-68
2021/06/22 11:49:46;;;;;;;1.75;1.35;;;24.80;52.10;;;;;;6264655;28;20025;-68
2021/06/22 11:52:50;;;;;;;2.40;1.50;;;24.80;52.20;;;;;;6276664;28;20104;-68
2021/06/22 11:55:52;;;;;;;2.83;1.30;;;24.80;52.10;;;;;;6270250;28;20039;-68
2021/06/22 11:58:53;;;;;;;1.75;1.38;;;24.80;52.10;;;;;;6289750;28;20119;-68
2021/06/22 12:01:54;;;;;;;1.85;1.23;;;24.80;52.20;;;;;;6290411;28;20043;-68
2021/06/22 12:04:54;;;;;;;3.63;1.80;;;24.80;52.10;;;;;;6264929;28;20060;-67
2021/06/22 12:07:56;;;;;;;4.32;1.15;;;24.80;52.20;;;;;;6280020;28;20017;-68
2021/06/22 12:10:56;;;;;;;1.67;1.20;;;24.70;52.10;;;;;;6268963;28;20535;-68
2021/06/22 12:13:57;;;;;;;3.38;1.40;;;24.70;52.10;;;;;;6290623;28;20102;-68
2021/06/22 12:16:59;;;;;;;1.65;1.20;;;24.70;52.10;;;;;;6276778;28;20045;-68
2021/06/22 12:19:59;;;;;;;2.20;1.30;;;24.70;52.10;;;;;;6268996;28;20480;-68
2021/06/22 12:23:07;;;;;;;2.80;1.27;;;24.70;52.10;;;;;;6261917;28;20052;-68
2021/06/22 12:26:09;;;;;;;2.60;1.33;;;24.70;52.10;;;;;;6267238;28;20025;-68
2021/06/22 12:29:27;;;;;;;1.50;1.20;;;24.70;52.10;;;;;;6274915;28;20782;-67
2021/06/22 12:32:27;;;;;;;3.38;1.60;;;24.80;52.10;;;;;;6270758;28;20532;-68
2021/06/22 12:35:28;;;;;;;3.65;1.45;;;24.80;52.20;;;;;;6264791;28;20380;-68
2021/06/22 12:38:29;;;;;;;1.45;1.20;;;24.70;52.10;;;;;;6267852;28;20404;-68
2021/06/22 12:41:30;;;;;;;1.40;1.30;;;24.80;52.10;;;;;;6262437;28;20483;-68
2021/06/22 12:44:30;;;;;;;1.40;1.17;;;24.70;52.10;;;;;;6265341;28;20122;-68
2021/06/22 12:47:31;;;;;;;1.90;1.27;;;24.70;52.10;;;;;;6273510;28;20088;-67
2021/06/22 12:50:34;;;;;;;1.10;1.00;;;24.80;52.10;;;;;;6289736;28;20515;-68
2021/06/22 12:53:35;;;;;;;1.52;1.27;;;24.80;52.10;;;;;;6268948;28;20415;-68
2021/06/22 12:56:58;;;;;;;1.13;1.00;;;24.80;52.10;;;;;;6266558;28;20033;-68
2021/06/22 12:59:59;;;;;;;4.75;1.42;;;24.80;52.10;;;;;;6259607;28;20028;-68
2021/06/22 13:03:09;;;;;;;2.58;1.50;;;24.80;52.20;;;;;;6270530;28;20524;-68
2021/06/22 13:06:10;;;;;;;6.68;1.75;;;24.80;52.20;;;;;;6252303;28;20049;-68
2021/06/22 13:09:22;;;;;;;5.05;2.00;;;24.80;52.10;;;;;;6279315;28;20025;-68
2021/06/22 13:12:27;;;;;;;4.00;1.38;;;24.70;51.90;;;;;;6286768;28;20101;-68
2021/06/22 13:15:28;;;;;;;;;;;24.70;51.90;;;;;;6272655;28;20056;-68
2021/06/22 13:18:29;;;;;;;6.22;2.22;;;24.70;51.40;;;;;;6276131;28;19912;-68
2021/06/22 13:21:43;;;;;;;11.13;2.60;;;24.70;51.30;;;;;;6265466;28;20021;-68
2021/06/22 13:24:50;;;;;;;5.65;2.30;;;24.70;51.30;;;;;;6271398;28;20029;-68
2021/06/22 13:27:54;;;;;;;8.07;3.50;;;24.70;51.20;;;;;;6271613;28;20029;-68
2021/06/22 13:31:13;;;;;;;5.38;2.50;;;24.70;51.30;;;;;;6249471;28;20445;-67
2021/06/22 13:34:13;;;;;;;7.30;2.40;;;24.60;51.00;;;;;;6275221;28;20040;-68
2021/06/22 13:37:14;;;;;;;6.40;2.47;;;24.70;51.10;;;;;;6288392;28;20044;-68
2021/06/22 13:40:14;;;;;;;4.72;2.20;;;24.60;51.00;;;;;;6268708;28;20022;-68
2021/06/22 13:43:16;;;;;;;4.40;2.17;;;24.60;50.90;;;;;;6267924;28;20043;-68
2021/06/22 13:46:24;;;;;;;7.45;2.05;;;24.60;50.70;;;;;;6288772;28;20456;-68
2021/06/22 13:49:41;;;;;;;4.93;1.70;;;24.60;50.80;;;;;;6286131;28;20030;-68
2021/06/22 13:52:45;;;;;;;5.60;2.13;;;24.60;50.70;;;;;;6282119;28;20021;-67
2021/06/22 13:55:46;;;;;;;5.38;1.85;;;24.60;50.80;;;;;;6273451;28;20037;-68
2021/06/22 13:58:46;;;;;;;6.07;1.92;;;24.60;51.00;;;;;;6275033;28;20032;-69
2021/06/22 14:01:47;;;;;;;4.20;1.88;;;24.60;51.10;;;;;;6268554;28;20075;-68
2021/06/22 14:04:47;;;;;;;4.38;1.90;;;24.60;51.10;;;;;;6280007;28;20032;-68
2021/06/22 14:07:48;;;;;;;8.50;2.45;;;24.60;51.20;;;;;;6264553;28;20029;-68
2021/06/22 14:10:51;;;;;;;5.13;2.30;;;24.60;51.10;;;;;;6266605;28;20480;-68
2021/06/22 14:13:53;;;;;;;7.57;1.75;;;24.60;51.10;;;;;;6259485;28;20454;-68
2021/06/22 14:16:54;;;;;;;4.70;2.10;;;24.60;51.00;;;;;;6267749;28;20037;-68
2021/06/22 14:19:54;;;;;;;7.35;2.08;;;24.60;51.00;;;;;;6269472;28;20032;-68
2021/06/22 14:22:56;;;;;;;6.50;2.03;;;24.60;50.80;;;;;;6268158;28;20217;-68
2021/06/22 14:25:56;;;;;;;7.80;2.22;;;24.60;50.90;;;;;;6282819;28;20023;-68
2021/06/22 14:28:59;;;;;;;8.20;2.05;;;24.60;50.90;;;;;;6277449;28;20112;-67
2021/06/22 14:31:59;;;;;;;5.20;2.03;;;24.60;50.90;;;;;;6289588;28;20025;-67
2021/06/22 14:35:00;;;;;;;9.10;2.38;;;24.60;50.90;;;;;;6292843;28;20031;-68
2021/06/22 14:38:01;;;;;;;8.50;2.25;;;24.50;50.80;;;;;;6292160;28;20483;-68
2021/06/22 14:41:01;;;;;;;7.63;2.08;;;24.50;50.90;;;;;;6284149;28;20028;-68
2021/06/22 14:44:02;;;;;;;5.68;2.05;;;24.50;51.00;;;;;;6284570;28;20479;-68
2021/06/22 14:47:02;;;;;;;6.68;1.92;;;24.50;51.00;;;;;;6253262;28;20030;-68
2021/06/22 14:50:06;;;;;;;5.50;2.03;;;24.50;51.00;;;;;;6281985;28;20025;-67
2021/06/22 14:53:10;;;;;;;4.90;2.40;;;24.50;51.00;;;;;;6251612;28;20028;-67
2021/06/22 14:56:10;;;;;;;4.60;1.90;;;24.50;51.10;;;;;;6269942;28;20041;-68
2021/06/22 14:59:12;;;;;;;6.47;1.83;;;24.40;50.80;;;;;;6256762;28;20036;-68
2021/06/22 15:02:12;;;;;;;5.85;2.20;;;24.50;50.80;;;;;;6276962;28;20048;-68
2021/06/22 15:05:13;;;;;;;5.40;1.85;;;24.40;50.70;;;;;;6255755;28;20029;-68
2021/06/22 15:08:13;;;;;;;3.70;1.42;;;24.50;50.60;;;;;;6253429;28;20096;-68
2021/06/22 15:11:15;;;;;;;8.00;1.73;;;24.50;50.70;;;;;;6284205;28;20400;-68
2021/06/22 15:14:15;;;;;;;7.47;2.00;;;24.50;50.40;;;;;;6271809;28;20400;-68
2021/06/22 15:17:16;;;;;;;5.22;1.80;;;24.50;50.40;;;;;;6291786;28;20052;-68
2021/06/22 15:20:21;;;;;;;5.28;2.25;;;24.50;50.10;;;;;;6285748;28;20419;-69
2021/06/22 15:23:21;;;;;;;;;;;24.50;50.30;;;;;;6272640;28;20021;-67
2021/06/22 15:26:22;;;;;;;4.75;1.98;;;24.50;50.40;;;;;;6284263;28;20377;-68
2021/06/22 15:29:25;;;;;;;14.77;2.10;;;24.50;50.40;;;;;;6252167;28;20032;-68
2021/06/22 15:32:26;;;;;;;15.10;2.10;;;24.50;50.40;;;;;;6291383;28;20025;-68
2021/06/22 15:35:27;;;;;;;5.60;1.52;;;24.50;50.50;;;;;;6293064;28;20074;-68
2021/06/22 15:38:27;;;;;;;5.22;1.70;;;24.60;50.70;;;;;;6293660;28;20104;-68
2021/06/22 15:41:28;;;;;;;4.15;1.45;;;24.60;50.80;;;;;;6294063;28;20066;-68
2021/06/22 15:44:28;;;;;;;7.15;1.75;;;24.60;50.80;;;;;;6293499;28;20024;-67
2021/06/22 15:47:29;;;;;;;3.45;1.50;;;24.60;50.90;;;;;;6293499;28;20060;-68
2021/06/22 15:50:30;;;;;;;3.55;1.42;;;24.60;50.90;;;;;;6293254;28;20417;-68